Time;durP1;ratioP1;P1;durP2;ratioP2;P2;SDS_P1;SDS_P2;PMS_P1;PMS_P2;Temp;Humidity;BMP_temperature;BMP_pressure;BME280_temperature;BME280_humidity;BME280_pressure;Samples;Min_cycle;Max_cycle;Signal;HPM_P1;HPM_P2
2022/02/14 00:00:16;;;;;;;;;;;3.50;99.90;;;;;;5036878;28;19925;-55
2022/02/14 00:02:43;;;;;;;;;;;3.40;99.90;;;;;;5036697;28;19929;-53
2022/02/14 00:05:11;;;;;;;;;;;3.40;99.90;;;;;;5043741;28;19990;-54
2022/02/14 00:07:39;;;;;;;;;;;3.30;99.90;;;;;;5036229;28;19929;-53
2022/02/14 00:10:07;;;;;;;;;;;3.30;99.90;;;;;;5040317;28;19925;-52
2022/02/14 00:12:34;;;;;;;;;;;3.40;99.80;;;;;;5038818;28;19999;-53
2022/02/14 00:15:01;;;;;;;;;;;3.40;99.60;;;;;;5044812;28;19933;-53
2022/02/14 00:17:28;;;;;;;;;;;3.30;99.60;;;;;;5056257;28;19925;-53
2022/02/14 00:19:55;;;;;;;;;;;3.30;99.90;;;;;;5056253;28;19924;-53
2022/02/14 00:22:22;;;;;;;;;;;3.40;99.10;;;;;;5056226;28;19975;-53
2022/02/14 00:24:51;;;;;;;;;;;3.50;98.10;;;;;;5056071;28;20474;-53
2022/02/14 00:27:18;;;;;;;;;;;3.80;97.50;;;;;;5054971;28;20337;-52
2022/02/14 00:29:45;;;;;;;;;;;3.80;97.20;;;;;;5037008;28;19996;-53
2022/02/14 00:32:12;;;;;;;;;;;3.80;97.10;;;;;;5035849;28;19931;-53
2022/02/14 00:34:39;;;;;;;;;;;3.80;96.70;;;;;;5035659;28;19951;-54
2022/02/14 00:37:06;;;;;;;;;;;3.80;96.00;;;;;;5035744;28;19971;-53
2022/02/14 00:39:33;;;;;;;;;;;3.80;96.90;;;;;;5037050;28;19929;-54
2022/02/14 00:42:01;;;;;;;;;;;3.70;96.70;;;;;;5055117;28;19991;-53
2022/02/14 00:44:28;;;;;;;;;;;3.70;96.80;;;;;;5053293;28;19929;-52
2022/02/14 00:46:54;;;;;;;;;;;3.60;96.70;;;;;;5040708;28;19925;-52
2022/02/14 00:49:21;;;;;;;;;;;3.50;96.80;;;;;;5035358;28;20375;-52
2022/02/14 00:51:48;;;;;;;;;;;3.60;95.90;;;;;;5037265;28;21000;-52
2022/02/14 00:54:15;;;;;;;;;;;3.70;95.80;;;;;;5053431;28;20089;-53
2022/02/14 00:56:41;;;;;;;;;;;3.80;94.60;;;;;;5040074;28;19979;-54
2022/02/14 00:59:10;;;;;;;;;;;3.80;95.00;;;;;;5050325;28;19925;-54
2022/02/14 01:01:36;;;;;;;;;;;3.80;95.20;;;;;;5035764;28;19926;-54
2022/02/14 01:04:03;;;;;;;;;;;3.70;95.60;;;;;;5035689;28;19994;-54
2022/02/14 01:06:30;;;;;;;;;;;3.70;95.20;;;;;;5043932;28;19990;-53
2022/02/14 01:08:57;;;;;;;;;;;3.60;95.00;;;;;;5051155;28;19971;-54
2022/02/14 01:11:24;;;;;;;;;;;3.60;95.30;;;;;;5047238;28;19929;-54
2022/02/14 01:13:52;;;;;;;;;;;3.40;95.30;;;;;;5051392;28;19925;-53
2022/02/14 01:16:20;;;;;;;;;;;3.40;95.20;;;;;;5056546;28;20049;-54
2022/02/14 01:18:47;;;;;;;;;;;3.40;95.20;;;;;;5079266;22;19928;-52
2022/02/14 01:21:14;;;;;;;;;;;3.40;95.30;;;;;;5049348;28;19925;-53
2022/02/14 01:23:40;;;;;;;;;;;3.30;95.80;;;;;;5052866;28;20027;-50
2022/02/14 01:26:07;;;;;;;;;;;3.30;95.40;;;;;;5053311;28;20020;-49
2022/02/14 01:28:34;;;;;;;;;;;3.20;95.80;;;;;;5055059;28;19932;-51
2022/02/14 01:31:01;;;;;;;;;;;3.10;95.50;;;;;;5060686;28;19925;-49
2022/02/14 01:33:29;;;;;;;;;;;3.20;95.20;;;;;;5052817;28;20513;-49
2022/02/14 01:35:56;;;;;;;;;;;3.10;95.10;;;;;;5052901;28;19925;-50
2022/02/14 01:38:22;;;;;;;;;;;3.10;94.80;;;;;;5049936;28;19929;-50
2022/02/14 01:40:49;;;;;;;;;;;3.10;95.10;;;;;;5050377;28;19978;-50
2022/02/14 01:43:16;;;;;;;;;;;3.10;95.20;;;;;;5036352;28;20268;-52
2022/02/14 01:45:43;;;;;;;;;;;3.10;95.00;;;;;;5036519;28;19932;-51
2022/02/14 01:48:10;;;;;;;;;;;3.10;95.10;;;;;;5033150;28;20005;-51
2022/02/14 01:50:38;;;;;;;;;;;3.10;95.00;;;;;;5048804;28;19928;-51
2022/02/14 01:53:05;;;;;;;;;;;3.10;94.90;;;;;;5032621;28;19933;-50
2022/02/14 01:55:32;;;;;;;;;;;3.20;94.40;;;;;;5049575;28;19971;-50
2022/02/14 01:58:00;;;;;;;;;;;3.10;94.70;;;;;;5047660;28;19925;-50
2022/02/14 02:00:26;;;;;;;;;;;3.10;94.20;;;;;;5042075;28;19928;-51
2022/02/14 02:02:53;;;;;;;;;;;3.00;94.80;;;;;;5051192;28;20429;-50
2022/02/14 02:05:20;;;;;;;;;;;2.90;94.30;;;;;;5036846;28;19925;-50
2022/02/14 02:07:48;;;;;;;;;;;2.80;94.40;;;;;;5049509;28;19975;-51
2022/02/14 02:10:16;;;;;;;;;;;2.80;94.20;;;;;;5049986;28;19932;-52
2022/02/14 02:12:48;;;;;;;;;;;2.90;94.40;;;;;;5035089;28;19925;-52
2022/02/14 02:15:15;;;;;;;;;;;2.90;94.30;;;;;;5032064;28;19921;-50
2022/02/14 02:17:43;;;;;;;;;;;2.90;94.40;;;;;;5049068;28;20283;-53
2022/02/14 02:20:10;;;;;;;;;;;2.90;93.80;;;;;;5036299;28;19924;-50
2022/02/14 02:22:37;;;;;;;;;;;2.90;93.40;;;;;;5032058;28;20021;-50
2022/02/14 02:25:07;;;;;;;;;;;3.00;93.40;;;;;;5032192;28;20019;-50
2022/02/14 02:27:33;;;;;;;;;;;3.10;93.00;;;;;;5033066;28;19929;-50
2022/02/14 02:30:00;;;;;;;;;;;3.00;93.30;;;;;;5044792;28;19975;-51
2022/02/14 02:32:28;;;;;;;;;;;3.00;93.20;;;;;;5051370;28;19940;-51
2022/02/14 02:34:56;;;;;;;;;;;3.10;93.00;;;;;;5044250;28;19987;-50
2022/02/14 02:37:22;;;;;;;;;;;3.10;92.60;;;;;;5032242;28;19932;-50
2022/02/14 02:39:49;;;;;;;;;;;3.30;91.90;;;;;;5048144;28;19925;-51
2022/02/14 02:42:20;;;;;;;;;;;3.40;91.70;;;;;;5041500;28;20307;-51
2022/02/14 02:44:47;;;;;;;;;;;3.40;91.80;;;;;;5041739;28;20375;-51
2022/02/14 02:47:15;;;;;;;;;;;3.40;91.70;;;;;;5031237;28;19925;-53
2022/02/14 02:49:43;;;;;;;;;;;3.40;91.70;;;;;;5030999;28;19929;-52
2022/02/14 02:52:10;;;;;;;;;;;3.40;91.80;;;;;;5045393;28;19933;-53
2022/02/14 02:54:37;;;;;;;;;;;3.50;91.40;;;;;;5033635;28;19932;-52
2022/02/14 02:57:04;;;;;;;;;;;3.50;91.00;;;;;;5036668;28;19971;-53
2022/02/14 02:59:34;;;;;;;;;;;3.50;91.10;;;;;;5041560;28;19925;-54
2022/02/14 03:02:01;;;;;;;;;;;3.50;90.70;;;;;;5037349;28;19931;-52
2022/02/14 03:04:28;;;;;;;;;;;3.40;90.00;;;;;;5043047;28;19960;-53
2022/02/14 03:06:55;;;;;;;;;;;3.60;90.00;;;;;;5046015;28;20353;-52
2022/02/14 03:09:22;;;;;;;;;;;3.50;89.40;;;;;;5045779;28;20488;-54
2022/02/14 03:11:49;;;;;;;;;;;3.40;89.20;;;;;;5043461;28;19932;-52
2022/02/14 03:14:16;;;;;;;;;;;3.40;90.10;;;;;;5031047;28;19925;-52
2022/02/14 03:16:45;;;;;;;;;;;3.30;90.00;;;;;;5032406;28;19932;-52
2022/02/14 03:19:12;;;;;;;;;;;3.30;90.10;;;;;;5044997;28;19929;-50
2022/02/14 03:21:39;;;;;;;;;;;3.20;90.20;;;;;;5051115;28;19925;-51
2022/02/14 03:24:06;;;;;;;;;;;3.20;90.70;;;;;;5052018;28;19955;-49
2022/02/14 03:26:33;;;;;;;;;;;3.30;90.00;;;;;;5049962;28;19925;-51
2022/02/14 03:29:00;;;;;;;;;;;3.40;89.90;;;;;;5047879;28;19963;-50
2022/02/14 03:31:27;;;;;;;;;;;3.40;89.60;;;;;;5068274;28;20382;-51
2022/02/14 03:33:55;;;;;;;;;;;3.40;88.70;;;;;;5073067;28;19925;-51
2022/02/14 03:36:22;;;;;;;;;;;3.30;89.10;;;;;;5074701;28;19924;-50
2022/02/14 03:38:49;;;;;;;;;;;3.20;88.90;;;;;;5070253;28;19971;-51
2022/02/14 03:41:16;;;;;;;;;;;3.20;89.00;;;;;;5063295;28;19925;-50
2022/02/14 03:43:43;;;;;;;;;;;3.20;89.30;;;;;;5057040;28;20417;-50
2022/02/14 03:46:10;;;;;;;;;;;3.20;89.50;;;;;;5045295;28;19975;-50
2022/02/14 03:48:36;;;;;;;;;;;3.30;89.90;;;;;;5034681;28;19990;-51
2022/02/14 03:51:05;;;;;;;;;;;3.30;89.80;;;;;;5073737;28;19928;-50
2022/02/14 03:53:31;;;;;;;;;;;3.20;90.00;;;;;;5075246;28;20030;-51
2022/02/14 03:55:58;;;;;;;;;;;3.30;90.20;;;;;;5067573;28;19959;-50
2022/02/14 03:58:25;;;;;;;;;;;3.30;90.10;;;;;;5034764;28;19932;-50
2022/02/14 04:00:52;;;;;;;;;;;3.40;89.00;;;;;;5054028;28;19925;-50
2022/02/14 04:03:19;;;;;;;;;;;3.40;90.10;;;;;;5043710;28;19944;-51
2022/02/14 04:05:46;;;;;;;;;;;3.50;88.50;;;;;;5034876;28;19928;-51
2022/02/14 04:08:14;;;;;;;;;;;3.70;86.70;;;;;;5034433;28;19925;-50
2022/02/14 04:10:41;;;;;;;;;;;4.00;85.30;;;;;;5034701;28;19925;-51
2022/02/14 04:13:08;;;;;;;;;;;4.10;85.20;;;;;;5052015;28;19960;-50
2022/02/14 04:15:35;;;;;;;;;;;4.20;85.20;;;;;;5055681;28;20465;-52
2022/02/14 04:18:02;;;;;;;;;;;4.20;84.80;;;;;;5054871;28;19970;-51
2022/02/14 04:20:28;;;;;;;;;;;4.20;84.50;;;;;;5037569;28;20429;-50
2022/02/14 04:22:55;;;;;;;;;;;4.40;83.70;;;;;;5054254;28;19928;-50
2022/02/14 04:25:24;;;;;;;;;;;4.40;84.70;;;;;;5054261;28;19925;-50
2022/02/14 04:27:50;;;;;;;;;;;4.40;84.10;;;;;;5054350;28;20023;-50
2022/02/14 04:30:17;;;;;;;;;;;4.30;83.80;;;;;;5054337;28;19928;-51
2022/02/14 04:32:44;;;;;;;;;;;4.30;84.70;;;;;;5055359;28;19989;-50
2022/02/14 04:35:11;;;;;;;;;;;4.20;84.80;;;;;;5053216;28;19951;-48
2022/02/14 04:37:38;;;;;;;;;;;4.20;84.10;;;;;;5065601;28;19929;-50
2022/02/14 04:40:05;;;;;;;;;;;4.20;85.20;;;;;;5052160;28;20048;-50
2022/02/14 04:42:34;;;;;;;;;;;4.10;85.20;;;;;;5065259;28;19978;-50
2022/02/14 04:45:01;;;;;;;;;;;4.10;86.10;;;;;;5062566;28;19982;-50
2022/02/14 04:47:28;;;;;;;;;;;4.10;86.70;;;;;;5060683;28;20474;-52
2022/02/14 04:49:55;;;;;;;;;;;4.00;86.10;;;;;;5063516;28;20509;-50
2022/02/14 04:52:22;;;;;;;;;;;4.00;86.60;;;;;;5064763;28;19925;-51
2022/02/14 04:54:48;;;;;;;;;;;4.20;85.30;;;;;;5056773;28;19985;-50
2022/02/14 04:57:15;;;;;;;;;;;4.20;85.80;;;;;;5071281;28;19966;-50
2022/02/14 04:59:43;;;;;;;;;;;4.30;86.60;;;;;;5048752;28;19944;-51
2022/02/14 05:02:10;;;;;;;;;;;4.30;85.80;;;;;;5053532;28;19925;-50
2022/02/14 05:04:37;;;;;;;;;;;4.30;85.40;;;;;;5054775;28;20334;-51
2022/02/14 05:07:04;;;;;;;;;;;4.40;85.10;;;;;;5053299;28;20476;-50
2022/02/14 05:09:31;;;;;;;;;;;4.40;85.80;;;;;;5052558;28;19925;-50
2022/02/14 05:11:57;;;;;;;;;;;4.30;84.80;;;;;;5053590;28;19929;-50
2022/02/14 05:14:24;;;;;;;;;;;4.30;85.10;;;;;;5053561;28;19931;-50
2022/02/14 05:16:52;;;;;;;;;;;4.40;85.50;;;;;;5053398;28;19924;-50
2022/02/14 05:19:20;;;;;;;;;;;4.50;84.80;;;;;;5052711;28;19928;-50
2022/02/14 05:21:47;;;;;;;;;;;4.50;86.20;;;;;;5041006;28;19925;-50
2022/02/14 05:24:13;;;;;;;;;;;4.50;85.00;;;;;;5046747;28;19937;-50
2022/02/14 05:26:40;;;;;;;;;;;4.50;84.30;;;;;;5053196;28;19990;-51
2022/02/14 05:29:07;;;;;;;;;;;4.50;84.30;;;;;;5052950;28;20289;-50
2022/02/14 05:31:34;;;;;;;;;;;4.60;83.80;;;;;;5053130;28;20349;-50
2022/02/14 05:34:02;;;;;;;;;;;4.60;83.40;;;;;;5061965;28;20290;-53
2022/02/14 05:36:29;;;;;;;;;;;4.60;83.40;;;;;;5052604;28;19929;-50
2022/02/14 05:38:56;;;;;;;;;;;4.60;84.10;;;;;;5052436;28;19970;-50
2022/02/14 05:41:23;;;;;;;;;;;4.60;83.60;;;;;;5048292;28;19925;-50
2022/02/14 05:43:50;;;;;;;;;;;4.70;84.30;;;;;;5041845;28;20019;-50
2022/02/14 05:46:17;;;;;;;;;;;4.90;84.20;;;;;;5050393;28;19924;-52
2022/02/14 05:48:44;;;;;;;;;;;5.00;83.70;;;;;;5034924;28;19933;-50
2022/02/14 05:51:12;;;;;;;;;;;5.10;82.80;;;;;;5046716;28;19937;-52
2022/02/14 05:53:40;;;;;;;;;;;5.00;83.80;;;;;;5040332;28;19933;-52
2022/02/14 05:56:07;;;;;;;;;;;4.90;84.80;;;;;;5051182;28;20007;-51
2022/02/14 05:58:34;;;;;;;;;;;5.00;83.20;;;;;;5042695;28;20360;-50
2022/02/14 06:01:01;;;;;;;;;;;5.00;83.00;;;;;;5046179;28;20446;-50
2022/02/14 06:03:29;;;;;;;;;;;5.10;83.80;;;;;;5045136;28;20006;-53
2022/02/14 06:05:56;;;;;;;;;;;5.00;84.40;;;;;;5041743;28;19929;-50
2022/02/14 06:08:24;;;;;;;;;;;5.00;84.50;;;;;;5041878;28;19991;-50
2022/02/14 06:10:51;;;;;;;;;;;5.10;84.10;;;;;;5040350;28;19925;-49
2022/02/14 06:13:18;;;;;;;;;;;5.20;83.90;;;;;;5039759;28;19925;-50
2022/02/14 06:15:45;;;;;;;;;;;5.20;84.10;;;;;;5043014;28;19933;-52
2022/02/14 06:18:12;;;;;;;;;;;5.20;83.60;;;;;;5040105;28;19994;-53
2022/02/14 06:20:39;;;;;;;;;;;5.20;83.40;;;;;;5041441;28;19933;-51
2022/02/14 06:23:06;;;;;;;;;;;5.10;83.00;;;;;;5048836;28;19929;-50
2022/02/14 06:25:34;;;;;;;;;;;5.10;84.30;;;;;;5035674;28;19931;-50
2022/02/14 06:28:02;;;;;;;;;;;5.10;82.70;;;;;;5044622;28;19935;-49
2022/02/14 06:30:29;;;;;;;;;;;5.20;82.30;;;;;;5046764;28;19925;-51
2022/02/14 06:32:56;;;;;;;;;;;5.10;82.80;;;;;;5041066;28;19925;-50
2022/02/14 06:35:23;;;;;;;;;;;5.10;81.70;;;;;;5050019;28;20303;-50
2022/02/14 06:37:50;;;;;;;;;;;5.10;82.10;;;;;;5046021;28;19940;-50
2022/02/14 06:40:17;;;;;;;;;;;5.10;82.30;;;;;;5037763;28;19925;-51
2022/02/14 06:42:47;;;;;;;;;;;5.10;82.40;;;;;;5050125;28;19925;-51
2022/02/14 06:45:15;;;;;;;;;;;5.20;83.00;;;;;;5048920;28;20015;-51
2022/02/14 06:47:42;;;;;;;;;;;5.30;83.00;;;;;;5048827;28;19951;-49
2022/02/14 06:50:09;;;;;;;;;;;5.30;81.90;;;;;;5032559;28;20016;-51
2022/02/14 06:52:36;;;;;;;;;;;5.40;82.50;;;;;;5048067;28;19986;-50
2022/02/14 06:55:03;;;;;;;;;;;5.30;82.80;;;;;;5040438;28;19926;-51
2022/02/14 06:57:31;;;;;;;;;;;5.30;81.50;;;;;;5030764;28;19991;-50
2022/02/14 06:59:59;;;;;;;;;;;5.30;81.90;;;;;;5032370;28;19932;-50
2022/02/14 07:02:26;;;;;;;;;;;5.30;83.10;;;;;;5035882;28;19975;-51
2022/02/14 07:04:53;;;;;;;;;;;5.30;81.50;;;;;;5039859;28;19986;-51
2022/02/14 07:07:20;;;;;;;;;;;5.30;82.20;;;;;;5037005;28;19936;-49
2022/02/14 07:09:47;;;;;;;;;;;5.40;81.80;;;;;;5042143;28;19925;-51
2022/02/14 07:12:14;;;;;;;;;;;5.50;82.70;;;;;;5037539;28;19984;-50
2022/02/14 07:14:40;;;;;;;;;;;5.50;82.80;;;;;;5035116;28;19936;-50
2022/02/14 07:17:11;;;;;;;;;;;5.50;82.70;;;;;;5049195;28;19987;-52
2022/02/14 07:19:39;;;;;;;;;;;5.50;82.90;;;;;;5049517;28;19925;-51
2022/02/14 07:22:05;;;;;;;;;;;5.70;82.40;;;;;;5070544;28;19924;-52
2022/02/14 07:24:32;;;;;;;;;;;5.80;82.40;;;;;;5036607;28;19925;-51
2022/02/14 07:26:59;;;;;;;;;;;5.80;82.90;;;;;;5031630;28;20349;-52
2022/02/14 07:29:26;;;;;;;;;;;5.90;82.30;;;;;;5045338;28;20369;-51
2022/02/14 07:31:53;;;;;;;;;;;6.00;82.10;;;;;;5043458;28;19925;-50
2022/02/14 07:34:22;;;;;;;;;;;6.10;80.40;;;;;;5071608;22;19932;-52
2022/02/14 07:36:49;;;;;;;;;;;6.20;80.00;;;;;;5052208;28;19931;-53
2022/02/14 07:39:16;;;;;;;;;;;6.50;80.30;;;;;;5052730;28;19925;-54
2022/02/14 07:41:42;;;;;;;;;;;6.50;79.10;;;;;;5052630;28;19936;-54
2022/02/14 07:44:09;;;;;;;;;;;6.50;79.20;;;;;;5046789;28;20485;-54
2022/02/14 07:46:36;;;;;;;;;;;6.40;78.90;;;;;;5047275;28;19978;-54
2022/02/14 07:49:03;;;;;;;;;;;6.40;79.50;;;;;;5051080;28;19938;-54
2022/02/14 07:51:31;;;;;;;;;;;6.60;80.50;;;;;;5038959;28;19924;-54
2022/02/14 07:53:59;;;;;;;;;;;7.20;79.20;;;;;;5044015;28;20092;-54
2022/02/14 07:56:26;;;;;;;;;;;7.50;78.70;;;;;;5050057;28;19932;-54
2022/02/14 07:58:53;;;;;;;;;;;7.70;77.50;;;;;;5032797;28;19925;-53
2022/02/14 08:01:20;;;;;;;;;;;8.00;76.80;;;;;;5032971;28;20049;-53
2022/02/14 08:03:47;;;;;;;;;;;8.10;78.00;;;;;;5039625;28;19925;-54
2022/02/14 08:06:14;;;;;;;;;;;8.10;76.00;;;;;;5047668;28;19925;-54
2022/02/14 08:08:42;;;;;;;;;;;8.00;76.30;;;;;;5049751;28;19945;-54
2022/02/14 08:11:09;;;;;;;;;;;8.00;76.30;;;;;;5049307;28;19925;-56
2022/02/14 08:13:36;;;;;;;;;;;8.50;76.00;;;;;;5042511;28;19929;-54
2022/02/14 08:16:03;;;;;;;;;;;8.90;75.90;;;;;;5051598;28;19925;-54
2022/02/14 08:18:34;;;;;;;;;;;8.70;75.80;;;;;;5052120;28;19925;-55
2022/02/14 08:21:01;;;;;;;;;;;8.40;77.90;;;;;;5036769;28;19936;-53
2022/02/14 08:23:29;;;;;;;;;;;8.10;76.80;;;;;;5046533;28;19929;-53
2022/02/14 08:25:57;;;;;;;;;;;7.80;78.20;;;;;;5051119;28;20342;-53
2022/02/14 08:28:24;;;;;;;;;;;7.60;77.50;;;;;;5053774;28;19925;-52
2022/02/14 08:30:51;;;;;;;;;;;7.50;78.20;;;;;;5052862;28;19924;-53
2022/02/14 08:33:18;;;;;;;;;;;7.40;79.70;;;;;;5049764;28;19932;-55
2022/02/14 08:35:45;;;;;;;;;;;7.30;78.90;;;;;;5038161;28;19933;-54
2022/02/14 08:38:13;;;;;;;;;;;7.40;78.40;;;;;;5037305;28;19937;-54
2022/02/14 08:40:39;;;;;;;;;;;7.40;78.30;;;;;;5041706;28;19933;-55
2022/02/14 08:43:08;;;;;;;;;;;7.60;78.00;;;;;;5037185;28;20457;-55
2022/02/14 08:45:35;;;;;;;;;;;7.80;77.90;;;;;;5040651;28;19936;-54
2022/02/14 08:48:02;;;;;;;;;;;7.70;78.30;;;;;;5037931;28;20046;-54
2022/02/14 08:50:29;;;;;;;;;;;7.80;79.50;;;;;;5037868;28;20054;-54
2022/02/14 08:52:56;;;;;;;;;;;8.10;78.00;;;;;;5041476;28;20019;-54
2022/02/14 08:55:23;;;;;;;;;;;8.00;78.60;;;;;;5049113;28;19933;-55
2022/02/14 08:57:50;;;;;;;;;;;8.20;78.70;;;;;;5048412;28;20342;-54
2022/02/14 09:00:18;;;;;;;;;;;8.10;78.50;;;;;;5045031;28;19948;-54
2022/02/14 09:02:45;;;;;;;;;;;8.30;79.30;;;;;;5045466;28;19933;-54
2022/02/14 09:05:12;;;;;;;;;;;8.30;78.90;;;;;;5048389;28;19929;-55
2022/02/14 09:07:38;;;;;;;;;;;8.40;79.00;;;;;;5057127;28;19929;-55
2022/02/14 09:10:06;;;;;;;;;;;8.40;79.10;;;;;;5040073;28;20477;-55
2022/02/14 09:12:32;;;;;;;;;;;8.40;78.60;;;;;;5047722;28;19979;-55
2022/02/14 09:14:59;;;;;;;;;;;9.50;77.60;;;;;;5043074;28;19932;-54
2022/02/14 09:17:28;;;;;;;;;;;9.90;75.10;;;;;;5042476;28;19929;-56
2022/02/14 09:19:55;;;;;;;;;;;10.00;73.20;;;;;;5049355;28;20015;-55
2022/02/14 09:22:22;;;;;;;;;;;10.00;75.00;;;;;;5041422;28;19928;-55
2022/02/14 09:24:49;;;;;;;;;;;9.90;75.20;;;;;;5045319;28;20353;-56
2022/02/14 09:27:15;;;;;;;;;;;9.80;74.50;;;;;;5050348;28;19929;-55
2022/02/14 09:29:42;;;;;;;;;;;10.10;73.10;;;;;;5040531;28;19933;-55
2022/02/14 09:32:09;;;;;;;;;;;10.50;72.20;;;;;;5052803;28;20444;-55
2022/02/14 09:34:37;;;;;;;;;;;10.80;71.80;;;;;;5049683;28;20337;-56
2022/02/14 09:37:04;;;;;;;;;;;10.60;72.80;;;;;;5050967;28;19925;-55
2022/02/14 09:39:31;;;;;;;;;;;10.80;72.60;;;;;;5042761;28;19968;-55
2022/02/14 10:24:44;;;;;;;;;;;17.60;55.00;;;;;;5036872;28;19967;-53
2022/02/14 10:27:11;;;;;;;;;;;16.70;57.00;;;;;;5033819;28;19925;-55
2022/02/14 10:29:39;;;;;;;;;;;17.80;55.40;;;;;;5036224;28;19925;-54
2022/02/14 10:32:07;;;;;;;;;;;17.50;54.30;;;;;;5034463;28;20065;-55
2022/02/14 10:34:35;;;;;;;;;;;16.50;56.30;;;;;;5048386;28;20349;-54
2022/02/14 10:37:02;;;;;;;;;;;16.70;55.30;;;;;;5040142;28;19928;-55
2022/02/14 10:39:29;;;;;;;;;;;16.90;55.90;;;;;;5043813;28;19925;-54
2022/02/14 10:41:58;;;;;;;;;;;16.50;55.40;;;;;;5046379;28;20314;-55
2022/02/14 10:47:11;;;;;;;;;;;16.90;56.70;;;;;;5043296;28;20247;-55
2022/02/14 10:49:39;;;;;;;;;;;16.70;54.60;;;;;;5042642;28;20399;-55
2022/02/14 10:52:07;;;;;;;;;;;16.00;55.20;;;;;;5048871;28;20369;-55
2022/02/14 10:54:37;;;;;;;;;;;15.60;56.20;;;;;;5047465;28;19925;-55
2022/02/14 10:57:06;;;;;;;;;;;15.90;55.70;;;;;;5048890;28;20294;-53
2022/02/14 10:59:33;;;;;;;;;;;15.30;57.90;;;;;;5048274;28;19925;-54
2022/02/14 11:02:02;;;;;;;;;;;14.90;56.90;;;;;;5042552;28;20306;-56
2022/02/14 11:04:30;;;;;;;;;;;14.40;59.70;;;;;;5043913;28;19996;-54
2022/02/14 11:06:57;;;;;;;;;;;14.00;58.70;;;;;;5049684;28;19928;-53
2022/02/14 11:09:27;;;;;;;;;;;14.10;60.00;;;;;;5048021;28;19932;-53
2022/02/14 11:11:55;;;;;;;;;;;13.70;58.80;;;;;;5051025;28;19928;-54
2022/02/14 11:14:25;;;;;;;;;;;13.60;59.40;;;;;;5046382;28;20314;-55
2022/02/14 11:16:52;;;;;;;;;;;14.10;63.80;;;;;;5048155;28;19928;-54
2022/02/14 11:19:19;;;;;;;;;;;14.40;59.60;;;;;;5050824;28;20039;-54
2022/02/14 11:21:46;;;;;;;;;;;13.90;61.50;;;;;;5041736;28;19933;-54
2022/02/14 11:24:19;;;;;;;;;;;14.00;62.10;;;;;;5043699;28;19925;-55
2022/02/14 11:26:55;;;;;;;;;;;14.00;61.90;;;;;;5041925;28;20015;-54
2022/02/14 11:29:40;;;;;;;;;;;13.80;62.40;;;;;;5032972;28;20004;-55
2022/02/14 11:32:19;;;;;;;;;;;13.80;60.40;;;;;;5037954;28;19941;-55
2022/02/14 11:34:57;;;;;;;;;;;13.70;60.70;;;;;;5033355;28;19925;-54
2022/02/14 11:37:24;;;;;;;;;;;13.70;60.60;;;;;;5039893;28;19933;-54
2022/02/14 11:39:51;;;;;;;;;;;13.80;62.40;;;;;;5035891;28;19940;-56
2022/02/14 11:42:17;;;;;;;;;;;14.00;63.10;;;;;;5040953;28;19931;-55
2022/02/14 11:44:45;;;;;;;;;;;14.00;62.30;;;;;;5052377;28;19937;-54
2022/02/14 11:47:14;;;;;;;;;;;14.30;60.20;;;;;;5044673;28;19933;-54
2022/02/14 11:49:43;;;;;;;;;;;14.20;61.70;;;;;;5039664;28;20406;-55
2022/02/14 11:52:29;;;;;;;;;;;14.20;61.30;;;;;;5046385;28;19952;-55
2022/02/14 11:54:57;;;;;;;;;;;14.60;61.20;;;;;;5038459;28;19928;-55
2022/02/14 11:57:28;;;;;;;;;;;15.10;58.90;;;;;;5036884;28;19925;-54
2022/02/14 12:00:23;;;;;;;;;;;14.80;57.60;;;;;;5039360;28;20024;-56
2022/02/14 12:02:58;;;;;;;;;;;14.70;72.30;;;;;;5046138;28;19928;-53
2022/02/14 12:05:49;;;;;;;;;;;14.10;80.20;;;;;;5040636;28;21600;-53
2022/02/14 12:08:19;;;;;;;;;;;13.60;83.20;;;;;;5022175;28;20368;-54
2022/02/14 12:10:47;;;;;;;;;;;13.10;86.10;;;;;;5033771;28;20170;-56
2022/02/14 12:13:15;;;;;;;;;;;13.10;87.30;;;;;;5041978;28;19951;-54
2022/02/14 12:21:13;;;;;;;;;;;12.50;89.20;;;;;;5042724;28;19927;-53
2022/02/14 12:23:43;;;;;;;;;;;11.50;90.10;;;;;;5058164;28;19939;-52
2022/02/14 12:26:11;;;;;;;;;;;11.20;90.30;;;;;;5061039;28;20457;-55
2022/02/14 12:28:39;;;;;;;;;;;11.10;90.50;;;;;;5052030;28;19929;-54
2022/02/14 12:31:07;;;;;;;;;;;11.10;88.10;;;;;;5047807;28;19933;-57
2022/02/14 12:39:42;;;;;;;;;;;11.50;85.80;;;;;;5042542;28;19932;-54
2022/02/14 12:42:10;;;;;;;;;;;11.70;82.30;;;;;;5047987;28;19929;-53
2022/02/14 12:44:37;;;;;;;;;;;11.50;78.80;;;;;;5039773;28;19929;-53
2022/02/14 12:47:06;;;;;;;;;;;11.40;81.30;;;;;;5044574;28;20028;-54
2022/02/14 12:49:33;;;;;;;;;;;11.70;79.00;;;;;;5050130;28;19947;-53
2022/02/14 12:52:14;;;;;;;;;;;11.70;79.20;;;;;;5040995;28;20410;-56
2022/02/14 12:54:53;;;;;;;;;;;11.70;79.90;;;;;;5040643;28;19928;-53
2022/02/14 12:57:32;;;;;;;;;;;11.60;82.70;;;;;;5035198;28;21734;-54
2022/02/14 12:59:59;;;;;;;;;;;11.40;83.10;;;;;;5045184;28;19974;-52
2022/02/14 13:02:26;;;;;;;;;;;11.30;84.00;;;;;;5040965;28;19941;-54
2022/02/14 13:04:53;;;;;;;;;;;11.10;82.80;;;;;;5043521;28;19939;-54
2022/02/14 13:07:20;;;;;;;;;;;11.30;83.30;;;;;;5041692;28;20504;-55
2022/02/14 13:09:47;;;;;;;;;;;11.60;84.50;;;;;;5041334;28;19975;-55
2022/02/14 13:12:23;;;;;;;;;;;11.70;84.40;;;;;;5040357;28;19936;-54
2022/02/14 13:14:50;;;;;;;;;;;11.80;82.30;;;;;;5039287;28;19924;-54
2022/02/14 13:17:17;;;;;;;;;;;11.90;81.10;;;;;;5038939;28;21672;-55
2022/02/14 13:19:47;;;;;;;;;;;11.60;81.10;;;;;;5041439;28;19937;-54
2022/02/14 13:22:21;;;;;;;;;;;11.40;80.50;;;;;;5047666;28;19925;-54
2022/02/14 13:24:48;;;;;;;;;;;10.90;82.10;;;;;;5042620;28;19928;-54
2022/02/14 13:27:16;;;;;;;;;;;10.90;80.60;;;;;;5049771;28;19982;-55
2022/02/14 13:29:43;;;;;;;;;;;10.90;77.80;;;;;;5046604;28;19986;-54
2022/02/14 13:32:11;;;;;;;;;;;10.70;78.10;;;;;;5050640;28;19925;-53
2022/02/14 13:34:38;;;;;;;;;;;10.60;79.10;;;;;;5075872;22;20371;-47
2022/02/14 13:37:10;;;;;;;;;;;10.70;79.40;;;;;;5066810;28;19997;-46
2022/02/14 13:39:37;;;;;;;;;;;10.80;79.40;;;;;;5068515;28;20450;-47
2022/02/14 13:42:04;;;;;;;;;;;10.90;79.10;;;;;;5060639;28;19925;-48
2022/02/14 13:44:33;;;;;;;;;;;10.90;77.80;;;;;;5065142;28;19966;-47
2022/02/14 13:47:17;;;;;;;;;;;10.90;76.50;;;;;;5050973;28;19933;-46
2022/02/14 13:49:44;;;;;;;;;;;10.90;77.50;;;;;;5049986;28;20382;-48
2022/02/14 13:52:21;;;;;;;;;;;10.90;78.80;;;;;;5050868;28;19947;-48
2022/02/14 13:54:57;;;;;;;;;;;10.80;80.30;;;;;;5049608;28;19928;-47
2022/02/14 13:57:24;;;;;;;;;;;10.90;79.70;;;;;;5049443;28;19932;-48
2022/02/14 13:59:52;;;;;;;;;;;10.90;80.00;;;;;;5048912;28;19982;-47
2022/02/14 14:02:20;;;;;;;;;;;10.90;77.30;;;;;;5049461;28;20295;-49
2022/02/14 14:04:48;;;;;;;;;;;10.90;78.20;;;;;;5052032;28;20027;-48
2022/02/14 14:07:16;;;;;;;;;;;11.00;76.80;;;;;;5051797;28;19975;-48
2022/02/14 14:09:44;;;;;;;;;;;11.10;76.20;;;;;;5051069;28;19925;-48
2022/02/14 14:12:11;;;;;;;;;;;11.00;75.70;;;;;;5049894;28;20456;-48
2022/02/14 14:14:40;;;;;;;;;;;10.90;77.20;;;;;;5051820;28;19932;-46
2022/02/14 14:17:09;;;;;;;;;;;11.20;79.10;;;;;;5051978;28;19925;-47
2022/02/14 14:19:46;;;;;;;;;;;11.40;76.70;;;;;;5051776;28;19940;-47
2022/02/14 14:22:14;;;;;;;;;;;11.50;76.40;;;;;;5044155;28;19929;-47
2022/02/14 14:24:41;;;;;;;;;;;11.40;76.60;;;;;;5047707;28;19925;-49
2022/02/14 14:27:08;;;;;;;;;;;11.20;77.50;;;;;;5051304;28;19932;-48
2022/02/14 14:29:35;;;;;;;;;;;11.10;77.90;;;;;;5051199;28;19924;-48
2022/02/14 14:32:02;;;;;;;;;;;10.90;79.00;;;;;;5051418;28;19928;-47
2022/02/14 14:34:30;;;;;;;;;;;10.60;79.50;;;;;;5050960;28;19924;-46
2022/02/14 14:36:57;;;;;;;;;;;10.30;80.60;;;;;;5051853;28;19925;-46
2022/02/14 14:39:24;;;;;;;;;;;10.10;82.70;;;;;;5051236;28;20476;-49
2022/02/14 14:41:51;;;;;;;;;;;10.10;81.80;;;;;;5039421;28;19932;-46
2022/02/14 14:44:19;;;;;;;;;;;10.00;81.60;;;;;;5051892;28;19924;-49
2022/02/14 14:46:46;;;;;;;;;;;9.90;83.70;;;;;;5051569;28;20453;-48
2022/02/14 14:49:13;;;;;;;;;;;9.90;84.60;;;;;;5051086;28;19963;-48
2022/02/14 14:51:42;;;;;;;;;;;9.80;85.70;;;;;;5051007;28;19939;-47
2022/02/14 14:54:09;;;;;;;;;;;9.70;85.80;;;;;;5051264;28;19925;-47
2022/02/14 14:56:36;;;;;;;;;;;9.80;84.50;;;;;;5051390;28;19925;-47
2022/02/14 14:59:05;;;;;;;;;;;9.70;84.70;;;;;;5051360;28;20015;-47
2022/02/14 15:01:33;;;;;;;;;;;9.60;85.40;;;;;;5051025;28;19924;-47
2022/02/14 15:04:02;;;;;;;;;;;9.70;85.30;;;;;;5051207;28;20039;-47
2022/02/14 15:06:30;;;;;;;;;;;9.60;85.80;;;;;;5051265;28;20378;-47
2022/02/14 15:08:58;;;;;;;;;;;9.50;86.10;;;;;;5051461;28;19924;-48
2022/02/14 15:11:25;;;;;;;;;;;9.60;87.20;;;;;;5050840;28;20353;-47
2022/02/14 15:13:52;;;;;;;;;;;9.70;87.80;;;;;;5051032;28;19931;-47
2022/02/14 15:16:20;;;;;;;;;;;9.90;88.10;;;;;;5051000;28;19987;-47
2022/02/14 15:18:48;;;;;;;;;;;9.80;89.20;;;;;;5046778;28;19947;-48
2022/02/14 15:21:15;;;;;;;;;;;9.70;90.10;;;;;;5050689;28;19983;-47
2022/02/14 15:23:44;;;;;;;;;;;9.60;90.30;;;;;;5055121;28;19929;-47
2022/02/14 15:26:12;;;;;;;;;;;9.50;90.60;;;;;;5055239;28;20421;-47